sensor_id;sensor_type;location;lat;lon;timestamp;pressure;altitude;pressure_sealevel;temperature;humidity
12969;BME280;6549;53.128;8.182;2022-10-17T00:01:53;101612.84;;;11.67;100.00
12969;BME280;6549;53.128;8.182;2022-10-17T00:04:53;101609.69;;;11.68;100.00
12969;BME280;6549;53.128;8.182;2022-10-17T00:07:54;101602.97;;;11.66;100.00
12969;BME280;6549;53.128;8.182;2022-10-17T00:11:04;101599.06;;;11.67;100.00
12969;BME280;6549;53.128;8.182;2022-10-17T00:14:04;101608.47;;;11.66;100.00
12969;BME280;6549;53.128;8.182;2022-10-17T00:17:05;101614.00;;;11.66;100.00
12969;BME280;6549;53.128;8.182;2022-10-17T00:20:06;101617.22;;;11.71;100.00
12969;BME280;6549;53.128;8.182;2022-10-17T00:23:06;101623.09;;;11.70;100.00
12969;BME280;6549;53.128;8.182;2022-10-17T00:26:07;101629.88;;;11.73;100.00
12969;BME280;6549;53.128;8.182;2022-10-17T00:29:07;101633.81;;;11.75;100.00
12969;BME280;6549;53.128;8.182;2022-10-17T00:32:07;101631.91;;;11.79;100.00
12969;BME280;6549;53.128;8.182;2022-10-17T00:35:08;101628.00;;;11.80;100.00
12969;BME280;6549;53.128;8.182;2022-10-17T00:38:08;101618.94;;;11.80;100.00
12969;BME280;6549;53.128;8.182;2022-10-17T00:41:10;101623.34;;;11.84;100.00
12969;BME280;6549;53.128;8.182;2022-10-17T00:47:29;101615.88;;;11.85;100.00
12969;BME280;6549;53.128;8.182;2022-10-17T00:50:31;101606.53;;;11.93;100.00
12969;BME280;6549;53.128;8.182;2022-10-17T00:53:32;101614.22;;;12.10;100.00
12969;BME280;6549;53.128;8.182;2022-10-17T00:56:35;101603.19;;;12.10;100.00
12969;BME280;6549;53.128;8.182;2022-10-17T00:59:37;101606.00;;;12.13;100.00
12969;BME280;6549;53.128;8.182;2022-10-17T01:02:39;101593.34;;;12.09;100.00
12969;BME280;6549;53.128;8.182;2022-10-17T01:05:40;101601.25;;;12.10;100.00
12969;BME280;6549;53.128;8.182;2022-10-17T01:08:40;101607.19;;;12.12;100.00
12969;BME280;6549;53.128;8.182;2022-10-17T01:22:46;101585.13;;;12.12;100.00
12969;BME280;6549;53.128;8.182;2022-10-17T01:32:15;101582.44;;;12.20;100.00
12969;BME280;6549;53.128;8.182;2022-10-17T01:35:38;101581.69;;;12.23;100.00
12969;BME280;6549;53.128;8.182;2022-10-17T01:41:46;101579.75;;;12.27;100.00
12969;BME280;6549;53.128;8.182;2022-10-17T01:44:57;101577.00;;;12.27;100.00
12969;BME280;6549;53.128;8.182;2022-10-17T01:48:04;101566.06;;;12.30;100.00
12969;BME280;6549;53.128;8.182;2022-10-17T01:51:09;101554.22;;;12.30;100.00
12969;BME280;6549;53.128;8.182;2022-10-17T01:54:36;101551.47;;;12.30;100.00
12969;BME280;6549;53.128;8.182;2022-10-17T01:57:46;101554.63;;;12.32;100.00
12969;BME280;6549;53.128;8.182;2022-10-17T02:00:49;101547.53;;;12.31;100.00
12969;BME280;6549;53.128;8.182;2022-10-17T02:03:51;101543.22;;;12.30;100.00
12969;BME280;6549;53.128;8.182;2022-10-17T02:06:53;101539.25;;;12.31;100.00
12969;BME280;6549;53.128;8.182;2022-10-17T02:09:53;101533.31;;;12.25;100.00
12969;BME280;6549;53.128;8.182;2022-10-17T02:12:59;101533.72;;;12.27;100.00
12969;BME280;6549;53.128;8.182;2022-10-17T02:16:33;101521.06;;;12.23;100.00
12969;BME280;6549;53.128;8.182;2022-10-17T02:23:10;101510.00;;;12.19;100.00
12969;BME280;6549;53.128;8.182;2022-10-17T02:26:40;101506.06;;;12.17;100.00
12969;BME280;6549;53.128;8.182;2022-10-17T02:29:46;101502.94;;;12.22;100.00
12969;BME280;6549;53.128;8.182;2022-10-17T02:32:54;101491.53;;;12.20;100.00
12969;BME280;6549;53.128;8.182;2022-10-17T02:36:01;101495.06;;;12.20;100.00
12969;BME280;6549;53.128;8.182;2022-10-17T02:39:05;101489.91;;;12.15;100.00
12969;BME280;6549;53.128;8.182;2022-10-17T02:42:09;101488.63;;;12.05;100.00
12969;BME280;6549;53.128;8.182;2022-10-17T02:45:12;101481.13;;;12.02;100.00
12969;BME280;6549;53.128;8.182;2022-10-17T02:48:21;101475.97;;;12.01;100.00
12969;BME280;6549;53.128;8.182;2022-10-17T02:51:32;101482.72;;;12.03;100.00
12969;BME280;6549;53.128;8.182;2022-10-17T02:54:40;101486.63;;;12.02;100.00
12969;BME280;6549;53.128;8.182;2022-10-17T02:57:49;101488.56;;;11.98;100.00
12969;BME280;6549;53.128;8.182;2022-10-17T03:00:51;101483.78;;;11.95;100.00
12969;BME280;6549;53.128;8.182;2022-10-17T03:04:03;101477.09;;;11.96;100.00
12969;BME280;6549;53.128;8.182;2022-10-17T03:07:04;101475.09;;;11.90;100.00
12969;BME280;6549;53.128;8.182;2022-10-17T03:10:04;101477.84;;;11.90;100.00
12969;BME280;6549;53.128;8.182;2022-10-17T03:13:05;101479.47;;;11.94;100.00
12969;BME280;6549;53.128;8.182;2022-10-17T03:16:05;101472.72;;;11.92;100.00
12969;BME280;6549;53.128;8.182;2022-10-17T03:19:05;101477.78;;;11.86;100.00
12969;BME280;6549;53.128;8.182;2022-10-17T03:22:06;101482.09;;;11.84;100.00
12969;BME280;6549;53.128;8.182;2022-10-17T03:25:07;101472.66;;;11.85;100.00
12969;BME280;6549;53.128;8.182;2022-10-17T03:28:08;101486.03;;;11.86;100.00
12969;BME280;6549;53.128;8.182;2022-10-17T03:31:10;101478.56;;;11.87;100.00
12969;BME280;6549;53.128;8.182;2022-10-17T03:34:11;101478.97;;;11.85;100.00
12969;BME280;6549;53.128;8.182;2022-10-17T03:37:12;101481.72;;;11.85;100.00
12969;BME280;6549;53.128;8.182;2022-10-17T03:40:12;101478.16;;;11.85;100.00
12969;BME280;6549;53.128;8.182;2022-10-17T03:43:12;101482.84;;;11.81;100.00
12969;BME280;6549;53.128;8.182;2022-10-17T03:46:13;101482.41;;;11.79;100.00
12969;BME280;6549;53.128;8.182;2022-10-17T03:49:13;101476.56;;;11.84;100.00
12969;BME280;6549;53.128;8.182;2022-10-17T03:52:14;101481.66;;;11.82;100.00
12969;BME280;6549;53.128;8.182;2022-10-17T03:55:15;101482.06;;;11.80;100.00
12969;BME280;6549;53.128;8.182;2022-10-17T03:58:15;101480.06;;;11.77;100.00
12969;BME280;6549;53.128;8.182;2022-10-17T04:01:17;101479.19;;;11.73;100.00
12969;BME280;6549;53.128;8.182;2022-10-17T04:04:18;101473.69;;;11.73;100.00
12969;BME280;6549;53.128;8.182;2022-10-17T04:07:18;101475.69;;;11.73;100.00
12969;BME280;6549;53.128;8.182;2022-10-17T04:10:18;101478.75;;;11.71;100.00
12969;BME280;6549;53.128;8.182;2022-10-17T04:13:18;101472.44;;;11.67;100.00
12969;BME280;6549;53.128;8.182;2022-10-17T04:16:19;101472.00;;;11.65;100.00
12969;BME280;6549;53.128;8.182;2022-10-17T04:19:19;101463.53;;;11.77;100.00
12969;BME280;6549;53.128;8.182;2022-10-17T04:22:20;101467.31;;;11.69;100.00
12969;BME280;6549;53.128;8.182;2022-10-17T04:25:20;101468.09;;;11.66;100.00
12969;BME280;6549;53.128;8.182;2022-10-17T04:28:24;101468.84;;;11.63;100.00
12969;BME280;6549;53.128;8.182;2022-10-17T04:31:25;101480.22;;;11.61;100.00
12969;BME280;6549;53.128;8.182;2022-10-17T04:34:25;101472.72;;;11.58;100.00
12969;BME280;6549;53.128;8.182;2022-10-17T04:37:27;101469.53;;;11.56;100.00
12969;BME280;6549;53.128;8.182;2022-10-17T04:40:28;101465.94;;;11.52;100.00
12969;BME280;6549;53.128;8.182;2022-10-17T04:43:29;101472.28;;;11.56;100.00
12969;BME280;6549;53.128;8.182;2022-10-17T04:46:32;101471.50;;;11.56;100.00
12969;BME280;6549;53.128;8.182;2022-10-17T04:49:32;101466.78;;;11.56;100.00
12969;BME280;6549;53.128;8.182;2022-10-17T04:52:34;101469.56;;;11.60;100.00
12969;BME280;6549;53.128;8.182;2022-10-17T04:55:37;101471.13;;;11.57;100.00
12969;BME280;6549;53.128;8.182;2022-10-17T04:58:38;101467.19;;;11.55;100.00
12969;BME280;6549;53.128;8.182;2022-10-17T05:01:39;101467.91;;;11.52;100.00
12969;BME280;6549;53.128;8.182;2022-10-17T05:04:39;101460.41;;;11.49;100.00
12969;BME280;6549;53.128;8.182;2022-10-17T05:07:40;101449.13;;;11.61;100.00
12969;BME280;6549;53.128;8.182;2022-10-17T05:10:42;101452.97;;;11.53;100.00
12969;BME280;6549;53.128;8.182;2022-10-17T05:13:43;101458.81;;;11.48;100.00
12969;BME280;6549;53.128;8.182;2022-10-17T05:16:43;101450.88;;;11.43;100.00
12969;BME280;6549;53.128;8.182;2022-10-17T05:19:44;101450.16;;;11.46;100.00
12969;BME280;6549;53.128;8.182;2022-10-17T05:22:44;101450.22;;;11.53;100.00
12969;BME280;6549;53.128;8.182;2022-10-17T05:25:44;101432.16;;;11.55;100.00
12969;BME280;6549;53.128;8.182;2022-10-17T05:28:45;101427.41;;;11.52;100.00
12969;BME280;6549;53.128;8.182;2022-10-17T05:31:45;101435.28;;;11.50;100.00
12969;BME280;6549;53.128;8.182;2022-10-17T05:34:45;101437.28;;;11.57;100.00
12969;BME280;6549;53.128;8.182;2022-10-17T05:37:46;101435.63;;;11.49;100.00
12969;BME280;6549;53.128;8.182;2022-10-17T05:40:46;101433.22;;;11.44;100.00
12969;BME280;6549;53.128;8.182;2022-10-17T05:43:47;101422.13;;;11.37;100.00
12969;BME280;6549;53.128;8.182;2022-10-17T05:46:48;101438.63;;;11.37;100.00
12969;BME280;6549;53.128;8.182;2022-10-17T05:49:48;101424.47;;;11.38;100.00
12969;BME280;6549;53.128;8.182;2022-10-17T05:52:52;101412.34;;;11.43;100.00
12969;BME280;6549;53.128;8.182;2022-10-17T05:55:57;101418.31;;;11.48;100.00
12969;BME280;6549;53.128;8.182;2022-10-17T05:58:58;101420.31;;;11.51;100.00
12969;BME280;6549;53.128;8.182;2022-10-17T06:01:58;101423.25;;;11.65;100.00
12969;BME280;6549;53.128;8.182;2022-10-17T06:04:58;101431.25;;;11.78;100.00
12969;BME280;6549;53.128;8.182;2022-10-17T06:07:58;101427.47;;;11.89;100.00
12969;BME280;6549;53.128;8.182;2022-10-17T06:10:59;101424.88;;;12.03;100.00
12969;BME280;6549;53.128;8.182;2022-10-17T06:14:00;101436.25;;;12.02;100.00
12969;BME280;6549;53.128;8.182;2022-10-17T06:17:00;101446.22;;;12.17;100.00
12969;BME280;6549;53.128;8.182;2022-10-17T06:20:00;101456.59;;;12.31;100.00
12969;BME280;6549;53.128;8.182;2022-10-17T06:23:01;101468.97;;;12.47;100.00
12969;BME280;6549;53.128;8.182;2022-10-17T06:26:03;101459.22;;;12.60;100.00
12969;BME280;6549;53.128;8.182;2022-10-17T06:29:03;101456.88;;;12.66;100.00
12969;BME280;6549;53.128;8.182;2022-10-17T06:32:04;101469.16;;;12.72;100.00
12969;BME280;6549;53.128;8.182;2022-10-17T06:35:05;101481.00;;;12.76;100.00
12969;BME280;6549;53.128;8.182;2022-10-17T06:38:05;101483.06;;;12.86;100.00
12969;BME280;6549;53.128;8.182;2022-10-17T06:41:10;101485.44;;;12.91;100.00
12969;BME280;6549;53.128;8.182;2022-10-17T06:44:12;101485.06;;;12.93;100.00
12969;BME280;6549;53.128;8.182;2022-10-17T06:47:12;101487.09;;;13.03;100.00
12969;BME280;6549;53.128;8.182;2022-10-17T06:50:13;101488.72;;;13.07;100.00
12969;BME280;6549;53.128;8.182;2022-10-17T06:53:13;101494.72;;;13.17;100.00
12969;BME280;6549;53.128;8.182;2022-10-17T06:56:14;101503.41;;;13.19;100.00
12969;BME280;6549;53.128;8.182;2022-10-17T06:59:14;101510.13;;;13.21;100.00
12969;BME280;6549;53.128;8.182;2022-10-17T07:02:15;101510.13;;;13.25;100.00
12969;BME280;6549;53.128;8.182;2022-10-17T07:05:15;101504.25;;;13.33;100.00
12969;BME280;6549;53.128;8.182;2022-10-17T07:08:15;101511.81;;;13.40;100.00
12969;BME280;6549;53.128;8.182;2022-10-17T07:11:18;101509.88;;;13.55;100.00
12969;BME280;6549;53.128;8.182;2022-10-17T07:14:19;101507.97;;;13.66;100.00
12969;BME280;6549;53.128;8.182;2022-10-17T07:17:19;101506.81;;;13.74;100.00
12969;BME280;6549;53.128;8.182;2022-10-17T07:20:19;101518.31;;;13.79;100.00
12969;BME280;6549;53.128;8.182;2022-10-17T07:23:21;101519.09;;;13.83;100.00
12969;BME280;6549;53.128;8.182;2022-10-17T07:26:21;101513.59;;;13.87;100.00
12969;BME280;6549;53.128;8.182;2022-10-17T07:29:22;101514.38;;;13.91;100.00
12969;BME280;6549;53.128;8.182;2022-10-17T07:32:22;101506.50;;;13.97;100.00
12969;BME280;6549;53.128;8.182;2022-10-17T07:35:22;101504.56;;;13.97;100.00
12969;BME280;6549;53.128;8.182;2022-10-17T07:38:23;101496.31;;;14.22;100.00
12969;BME280;6549;53.128;8.182;2022-10-17T07:41:23;101490.03;;;14.74;100.00
12969;BME280;6549;53.128;8.182;2022-10-17T07:44:23;101492.38;;;15.11;100.00
12969;BME280;6549;53.128;8.182;2022-10-17T07:47:24;101500.28;;;15.23;100.00
12969;BME280;6549;53.128;8.182;2022-10-17T07:50:24;101503.03;;;15.23;100.00
12969;BME280;6549;53.128;8.182;2022-10-17T07:53:25;101501.06;;;15.31;100.00
12969;BME280;6549;53.128;8.182;2022-10-17T07:56:46;101508.53;;;15.48;100.00
12969;BME280;6549;53.128;8.182;2022-10-17T07:59:49;101515.25;;;15.61;100.00
12969;BME280;6549;53.128;8.182;2022-10-17T08:02:50;101504.06;;;15.83;100.00
12969;BME280;6549;53.128;8.182;2022-10-17T08:05:59;101505.56;;;15.98;100.00
12969;BME280;6549;53.128;8.182;2022-10-17T08:09:02;101503.16;;;16.03;100.00
12969;BME280;6549;53.128;8.182;2022-10-17T08:12:03;101501.16;;;16.07;100.00
12969;BME280;6549;53.128;8.182;2022-10-17T08:15:05;101502.31;;;16.13;100.00
12969;BME280;6549;53.128;8.182;2022-10-17T08:18:05;101506.59;;;16.25;100.00
12969;BME280;6549;53.128;8.182;2022-10-17T08:21:06;101501.75;;;16.40;100.00
12969;BME280;6549;53.128;8.182;2022-10-17T08:24:10;101510.22;;;16.77;100.00
12969;BME280;6549;53.128;8.182;2022-10-17T08:27:11;101503.81;;;17.25;100.00
12969;BME280;6549;53.128;8.182;2022-10-17T08:30:12;101499.53;;;17.50;100.00
12969;BME280;6549;53.128;8.182;2022-10-17T08:33:13;101516.00;;;18.02;100.00
12969;BME280;6549;53.128;8.182;2022-10-17T08:36:14;101520.31;;;18.33;100.00
12969;BME280;6549;53.128;8.182;2022-10-17T08:39:15;101515.19;;;18.59;100.00
12969;BME280;6549;53.128;8.182;2022-10-17T08:46:02;101510.66;;;18.68;100.00
12969;BME280;6549;53.128;8.182;2022-10-17T08:49:08;101509.19;;;18.60;100.00
12969;BME280;6549;53.128;8.182;2022-10-17T08:52:16;101516.47;;;18.51;100.00
12969;BME280;6549;53.128;8.182;2022-10-17T08:55:35;101508.41;;;18.60;100.00
12969;BME280;6549;53.128;8.182;2022-10-17T08:58:36;101506.25;;;18.71;100.00
12969;BME280;6549;53.128;8.182;2022-10-17T09:01:47;101497.41;;;18.76;100.00
12969;BME280;6549;53.128;8.182;2022-10-17T09:08:52;101511.75;;;18.74;100.00
12969;BME280;6549;53.128;8.182;2022-10-17T09:12:20;101528.78;;;18.80;100.00
12969;BME280;6549;53.128;8.182;2022-10-17T09:18:42;101534.78;;;19.45;100.00
12969;BME280;6549;53.128;8.182;2022-10-17T09:21:51;101532.78;;;19.65;100.00
12969;BME280;6549;53.128;8.182;2022-10-17T09:24:55;101538.94;;;19.56;100.00
12969;BME280;6549;53.128;8.182;2022-10-17T09:28:12;101540.38;;;19.45;100.00
12969;BME280;6549;53.128;8.182;2022-10-17T09:31:23;101537.31;;;19.36;100.00
12969;BME280;6549;53.128;8.182;2022-10-17T09:34:27;101548.13;;;19.34;100.00
12969;BME280;6549;53.128;8.182;2022-10-17T09:37:30;101541.09;;;19.25;100.00
12969;BME280;6549;53.128;8.182;2022-10-17T09:40:33;101538.44;;;19.18;100.00
12969;BME280;6549;53.128;8.182;2022-10-17T09:43:35;101547.66;;;19.15;100.00
12969;BME280;6549;53.128;8.182;2022-10-17T09:46:37;101553.56;;;19.17;100.00
12969;BME280;6549;53.128;8.182;2022-10-17T09:49:40;101550.47;;;19.12;100.00
12969;BME280;6549;53.128;8.182;2022-10-17T09:52:42;101547.03;;;19.04;100.00
12969;BME280;6549;53.128;8.182;2022-10-17T09:55:56;101557.53;;;18.97;100.00
12969;BME280;6549;53.128;8.182;2022-10-17T09:58:57;101558.47;;;18.87;100.00
12969;BME280;6549;53.128;8.182;2022-10-17T10:05:16;101575.72;;;18.78;100.00
12969;BME280;6549;53.128;8.182;2022-10-17T10:08:18;101582.09;;;18.78;100.00
12969;BME280;6549;53.128;8.182;2022-10-17T10:11:23;101586.88;;;18.78;100.00
12969;BME280;6549;53.128;8.182;2022-10-17T10:14:35;101581.69;;;18.80;100.00
12969;BME280;6549;53.128;8.182;2022-10-17T10:17:40;101618.59;;;18.84;100.00
12969;BME280;6549;53.128;8.182;2022-10-17T10:20:40;101642.75;;;18.91;100.00
12969;BME280;6549;53.128;8.182;2022-10-17T10:24:04;101639.03;;;19.01;100.00
12969;BME280;6549;53.128;8.182;2022-10-17T10:27:11;101630.69;;;19.01;100.00
12969;BME280;6549;53.128;8.182;2022-10-17T10:30:18;101626.56;;;19.09;100.00
12969;BME280;6549;53.128;8.182;2022-10-17T10:33:21;101615.72;;;19.14;100.00
12969;BME280;6549;53.128;8.182;2022-10-17T10:36:22;101637.53;;;19.19;100.00
12969;BME280;6549;53.128;8.182;2022-10-17T10:39:46;101621.16;;;19.21;100.00
12969;BME280;6549;53.128;8.182;2022-10-17T10:42:52;101627.53;;;19.22;100.00
12969;BME280;6549;53.128;8.182;2022-10-17T10:45:53;101623.22;;;19.17;100.00
12969;BME280;6549;53.128;8.182;2022-10-17T10:48:56;101623.00;;;19.32;100.00
12969;BME280;6549;53.128;8.182;2022-10-17T10:52:00;101646.41;;;19.38;100.00
12969;BME280;6549;53.128;8.182;2022-10-17T10:58:43;101653.09;;;19.40;100.00
12969;BME280;6549;53.128;8.182;2022-10-17T11:01:56;101695.84;;;19.34;100.00
12969;BME280;6549;53.128;8.182;2022-10-17T11:05:13;101729.81;;;19.25;100.00
12969;BME280;6549;53.128;8.182;2022-10-17T11:08:27;101684.06;;;19.22;100.00
12969;BME280;6549;53.128;8.182;2022-10-17T11:11:38;101702.69;;;19.02;100.00
12969;BME280;6549;53.128;8.182;2022-10-17T11:18:39;101663.25;;;18.47;100.00
12969;BME280;6549;53.128;8.182;2022-10-17T11:22:08;101693.13;;;18.42;100.00
12969;BME280;6549;53.128;8.182;2022-10-17T11:25:34;101693.72;;;18.27;100.00
12969;BME280;6549;53.128;8.182;2022-10-17T11:28:38;101686.66;;;18.19;100.00
12969;BME280;6549;53.128;8.182;2022-10-17T11:36:41;101723.63;;;18.16;100.00
12969;BME280;6549;53.128;8.182;2022-10-17T11:40:01;101756.25;;;18.12;100.00
12969;BME280;6549;53.128;8.182;2022-10-17T11:43:16;101772.97;;;18.12;100.00
12969;BME280;6549;53.128;8.182;2022-10-17T11:46:21;101782.19;;;18.02;100.00
12969;BME280;6549;53.128;8.182;2022-10-17T11:49:47;101796.25;;;17.87;100.00
12969;BME280;6549;53.128;8.182;2022-10-17T11:53:23;101782.81;;;17.75;100.00
12969;BME280;6549;53.128;8.182;2022-10-17T11:56:21;101743.97;;;17.68;100.00
12969;BME280;6549;53.128;8.182;2022-10-17T12:03:24;101713.44;;;17.58;100.00
12969;BME280;6549;53.128;8.182;2022-10-17T12:12:50;101637.63;;;17.61;100.00
12969;BME280;6549;53.128;8.182;2022-10-17T12:15:51;101634.47;;;17.59;100.00
12969;BME280;6549;53.128;8.182;2022-10-17T12:19:22;101647.97;;;17.60;100.00
12969;BME280;6549;53.128;8.182;2022-10-17T12:22:33;101657.88;;;17.61;100.00
12969;BME280;6549;53.128;8.182;2022-10-17T12:25:52;101657.50;;;17.59;100.00
12969;BME280;6549;53.128;8.182;2022-10-17T12:28:54;101678.94;;;17.59;100.00
12969;BME280;6549;53.128;8.182;2022-10-17T12:32:11;101670.97;;;17.61;100.00
12969;BME280;6549;53.128;8.182;2022-10-17T12:35:18;101671.75;;;17.58;100.00
12969;BME280;6549;53.128;8.182;2022-10-17T12:38:22;101688.44;;;17.58;100.00
12969;BME280;6549;53.128;8.182;2022-10-17T12:44:39;101708.31;;;17.52;100.00
12969;BME280;6549;53.128;8.182;2022-10-17T12:47:39;101738.59;;;17.40;100.00
12969;BME280;6549;53.128;8.182;2022-10-17T12:51:04;101721.97;;;17.36;100.00
12969;BME280;6549;53.128;8.182;2022-10-17T13:03:29;101755.31;;;17.33;100.00
12969;BME280;6549;53.128;8.182;2022-10-17T13:06:58;101755.28;;;17.36;100.00
12969;BME280;6549;53.128;8.182;2022-10-17T13:17:55;101768.13;;;17.16;100.00
12969;BME280;6549;53.128;8.182;2022-10-17T13:21:02;101766.59;;;17.12;100.00
12969;BME280;6549;53.128;8.182;2022-10-17T13:24:33;101777.69;;;17.12;100.00
12969;BME280;6549;53.128;8.182;2022-10-17T13:27:48;101778.88;;;17.11;100.00
12969;BME280;6549;53.128;8.182;2022-10-17T13:31:30;101774.16;;;17.08;100.00
12969;BME280;6549;53.128;8.182;2022-10-17T13:34:32;101768.16;;;17.09;100.00
12969;BME280;6549;53.128;8.182;2022-10-17T13:37:43;101783.63;;;17.10;100.00
12969;BME280;6549;53.128;8.182;2022-10-17T13:41:02;101790.00;;;17.11;100.00
12969;BME280;6549;53.128;8.182;2022-10-17T13:44:35;101789.59;;;17.08;100.00
12969;BME280;6549;53.128;8.182;2022-10-17T13:47:36;101788.81;;;17.04;100.00
12969;BME280;6549;53.128;8.182;2022-10-17T13:50:48;101804.69;;;17.04;100.00
12969;BME280;6549;53.128;8.182;2022-10-17T13:53:49;101803.56;;;16.94;100.00
12969;BME280;6549;53.128;8.182;2022-10-17T13:56:57;101802.78;;;16.94;100.00
12969;BME280;6549;53.128;8.182;2022-10-17T13:59:58;101813.47;;;16.92;100.00
12969;BME280;6549;53.128;8.182;2022-10-17T14:03:00;101812.28;;;16.93;100.00
12969;BME280;6549;53.128;8.182;2022-10-17T14:06:22;101809.53;;;16.89;100.00
12969;BME280;6549;53.128;8.182;2022-10-17T14:09:25;101818.28;;;16.84;100.00
12969;BME280;6549;53.128;8.182;2022-10-17T14:12:26;101821.44;;;16.83;100.00
12969;BME280;6549;53.128;8.182;2022-10-17T14:15:29;101821.06;;;16.84;100.00
12969;BME280;6549;53.128;8.182;2022-10-17T14:18:30;101825.81;;;16.80;100.00
12969;BME280;6549;53.128;8.182;2022-10-17T14:21:31;101830.97;;;16.78;100.00
12969;BME280;6549;53.128;8.182;2022-10-17T14:24:33;101828.63;;;16.77;100.00
12969;BME280;6549;53.128;8.182;2022-10-17T14:27:36;101833.75;;;16.78;100.00
12969;BME280;6549;53.128;8.182;2022-10-17T14:30:52;101832.97;;;16.78;100.00
12969;BME280;6549;53.128;8.182;2022-10-17T14:33:53;101832.97;;;16.78;100.00
12969;BME280;6549;53.128;8.182;2022-10-17T14:36:54;101834.94;;;16.81;100.00
12969;BME280;6549;53.128;8.182;2022-10-17T14:39:58;101838.91;;;16.80;100.00
12969;BME280;6549;53.128;8.182;2022-10-17T14:43:02;101847.59;;;16.82;100.00
12969;BME280;6549;53.128;8.182;2022-10-17T14:46:04;101858.72;;;16.85;100.00
12969;BME280;6549;53.128;8.182;2022-10-17T14:49:15;101855.53;;;16.94;100.00
12969;BME280;6549;53.128;8.182;2022-10-17T14:55:26;101859.09;;;16.87;100.00
12969;BME280;6549;53.128;8.182;2022-10-17T14:58:31;101852.34;;;16.92;100.00
12969;BME280;6549;53.128;8.182;2022-10-17T15:01:33;101858.31;;;16.94;100.00
12969;BME280;6549;53.128;8.182;2022-10-17T15:04:34;101849.16;;;16.97;100.00
12969;BME280;6549;53.128;8.182;2022-10-17T15:07:34;101844.41;;;16.97;100.00
12969;BME280;6549;53.128;8.182;2022-10-17T15:10:36;101855.13;;;16.99;100.00
12969;BME280;6549;53.128;8.182;2022-10-17T15:13:39;101862.66;;;16.95;100.00
12969;BME280;6549;53.128;8.182;2022-10-17T15:16:43;101857.91;;;16.92;100.00
12969;BME280;6549;53.128;8.182;2022-10-17T15:19:43;101853.19;;;16.85;100.00
12969;BME280;6549;53.128;8.182;2022-10-17T15:22:44;101863.50;;;16.81;100.00
12969;BME280;6549;53.128;8.182;2022-10-17T15:25:50;101863.91;;;16.80;100.00
12969;BME280;6549;53.128;8.182;2022-10-17T15:28:59;101869.03;;;16.78;100.00
12969;BME280;6549;53.128;8.182;2022-10-17T15:32:03;101866.69;;;16.73;100.00
12969;BME280;6549;53.128;8.182;2022-10-17T15:35:04;101869.84;;;16.75;100.00
12969;BME280;6549;53.128;8.182;2022-10-17T15:38:10;101871.84;;;16.81;100.00
12969;BME280;6549;53.128;8.182;2022-10-17T15:41:11;101873.81;;;16.81;100.00
12969;BME280;6549;53.128;8.182;2022-10-17T15:44:21;101876.19;;;16.79;100.00
12969;BME280;6549;53.128;8.182;2022-10-17T15:47:30;101884.91;;;16.81;100.00
12969;BME280;6549;53.128;8.182;2022-10-17T15:50:39;101890.06;;;16.79;100.00
12969;BME280;6549;53.128;8.182;2022-10-17T15:53:40;101893.66;;;16.76;100.00
12969;BME280;6549;53.128;8.182;2022-10-17T15:56:47;101894.44;;;16.76;100.00
12969;BME280;6549;53.128;8.182;2022-10-17T15:59:50;101893.25;;;16.74;100.00
12969;BME280;6549;53.128;8.182;2022-10-17T16:02:51;101895.63;;;16.72;100.00
12969;BME280;6549;53.128;8.182;2022-10-17T16:05:51;101909.09;;;16.73;100.00
12969;BME280;6549;53.128;8.182;2022-10-17T16:08:52;101907.91;;;16.74;100.00
12969;BME280;6549;53.128;8.182;2022-10-17T16:11:52;101925.38;;;16.75;100.00
12969;BME280;6549;53.128;8.182;2022-10-17T16:14:52;101936.47;;;16.71;100.00
12969;BME280;6549;53.128;8.182;2022-10-17T16:17:55;101945.19;;;16.70;100.00
12969;BME280;6549;53.128;8.182;2022-10-17T16:20:57;101952.34;;;16.67;100.00
12969;BME280;6549;53.128;8.182;2022-10-17T16:23:57;101951.16;;;16.50;100.00
12969;BME280;6549;53.128;8.182;2022-10-17T16:26:58;101965.41;;;16.49;100.00
12969;BME280;6549;53.128;8.182;2022-10-17T16:29:58;101973.34;;;16.36;100.00
12969;BME280;6549;53.128;8.182;2022-10-17T16:32:58;101975.69;;;16.24;100.00
12969;BME280;6549;53.128;8.182;2022-10-17T16:35:59;101975.28;;;16.18;100.00
12969;BME280;6549;53.128;8.182;2022-10-17T16:38:59;101968.16;;;16.10;100.00
12969;BME280;6549;53.128;8.182;2022-10-17T16:42:00;101971.69;;;16.07;100.00
12969;BME280;6549;53.128;8.182;2022-10-17T16:45:00;101970.50;;;16.04;100.00
12969;BME280;6549;53.128;8.182;2022-10-17T16:48:00;101974.88;;;16.02;100.00
12969;BME280;6549;53.128;8.182;2022-10-17T16:51:01;101967.75;;;16.01;100.00
12969;BME280;6549;53.128;8.182;2022-10-17T16:54:01;101971.28;;;15.98;100.00
12969;BME280;6549;53.128;8.182;2022-10-17T16:57:03;101970.50;;;15.97;100.00
12969;BME280;6549;53.128;8.182;2022-10-17T17:00:05;101964.13;;;15.90;100.00
12969;BME280;6549;53.128;8.182;2022-10-17T17:03:05;101964.56;;;15.88;100.00
12969;BME280;6549;53.128;8.182;2022-10-17T17:06:07;101970.47;;;15.87;100.00
12969;BME280;6549;53.128;8.182;2022-10-17T17:09:08;101968.09;;;15.85;100.00
12969;BME280;6549;53.128;8.182;2022-10-17T17:12:08;101978.78;;;15.87;100.00
12969;BME280;6549;53.128;8.182;2022-10-17T17:15:08;101991.84;;;15.83;100.00
12969;BME280;6549;53.128;8.182;2022-10-17T17:18:09;101996.22;;;15.84;100.00
12969;BME280;6549;53.128;8.182;2022-10-17T17:21:11;101996.22;;;15.84;100.00
12969;BME280;6549;53.128;8.182;2022-10-17T17:24:12;102004.09;;;15.78;100.00
12969;BME280;6549;53.128;8.182;2022-10-17T17:27:13;102007.25;;;15.77;100.00
12969;BME280;6549;53.128;8.182;2022-10-17T17:30:13;102012.00;;;15.72;100.00
12969;BME280;6549;53.128;8.182;2022-10-17T17:33:14;101999.72;;;15.70;100.00